Time;durP1;ratioP1;P1;durP2;ratioP2;P2;SDS_P1;SDS_P2;PMS_P1;PMS_P2;Temp;Humidity;BMP_temperature;BMP_pressure;BME280_temperature;BME280_humidity;BME280_pressure;Samples;Min_cycle;Max_cycle;Signal;HPM_P1;HPM_P2
2023/12/26 00:02:04;;;;;;;3.03;0.93;;;;;;;8.02;89.19;99267.81;5093718;28;20052;-67
2023/12/26 00:04:33;;;;;;;0.85;0.85;;;;;;;7.99;89.55;99257.63;5094009;28;20272;-67
2023/12/26 00:07:02;;;;;;;1.15;1.05;;;;;;;8.04;90.06;99270.34;5093864;28;20036;-66
2023/12/26 00:09:31;;;;;;;1.23;1.00;;;;;;;8.04;89.22;99271.19;5093903;28;20040;-66
2023/12/26 00:12:00;;;;;;;0.50;0.50;;;;;;;7.90;89.65;99244.91;5094061;28;20394;-66
2023/12/26 00:14:30;;;;;;;3.17;1.80;;;;;;;7.90;89.62;99260.16;5093750;28;20119;-67
2023/12/26 00:16:59;;;;;;;0.68;0.68;;;;;;;7.87;89.56;99262.69;5094121;28;20299;-67
2023/12/26 00:19:29;;;;;;;0.53;0.53;;;;;;;7.81;90.08;99249.13;5092555;28;20040;-67
2023/12/26 00:21:58;;;;;;;0.40;0.40;;;;;;;7.81;90.52;99257.59;5094307;28;20051;-67
2023/12/26 00:24:27;;;;;;;1.17;1.07;;;;;;;7.80;90.55;99245.72;5093677;28;20044;-67
2023/12/26 00:26:56;;;;;;;0.40;0.40;;;;;;;7.80;90.66;99250.78;5093831;28;20039;-66
2023/12/26 00:29:25;;;;;;;2.58;0.88;;;;;;;7.78;91.11;99236.41;5093642;28;20044;-67
2023/12/26 00:31:55;;;;;;;0.60;0.60;;;;;;;7.80;91.35;99240.63;5093685;28;20109;-67
2023/12/26 00:34:23;;;;;;;0.40;0.40;;;;;;;7.79;91.07;99238.97;5093516;28;20048;-66
2023/12/26 00:36:54;;;;;;;4.18;0.95;;;;;;;7.78;91.49;99247.41;5095573;28;20032;-66
2023/12/26 00:39:23;;;;;;;0.77;0.77;;;;;;;7.77;91.42;99250.81;5096585;28;20494;-66
2023/12/26 00:41:52;;;;;;;0.45;0.45;;;;;;;7.81;91.38;99261.81;5080073;28;20044;-66
2023/12/26 00:44:20;;;;;;;0.60;0.60;;;;;;;7.81;91.98;99255.03;5096489;28;20502;-67
2023/12/26 00:46:49;;;;;;;0.33;0.33;;;;;;;7.80;92.03;99255.88;5096387;28;20507;-67
2023/12/26 00:49:18;;;;;;;0.85;0.85;;;;;;;7.80;91.56;99258.41;5097049;28;20040;-66
2023/12/26 00:51:47;;;;;;;0.45;0.45;;;;;;;7.79;92.62;99259.28;5097496;28;20139;-67
2023/12/26 00:54:17;;;;;;;3.87;2.10;;;;;;;7.80;92.35;99260.97;5096237;28;20040;-66
2023/12/26 00:56:46;;;;;;;2.10;1.90;;;;;;;7.82;92.47;99273.69;5096302;28;20055;-66
2023/12/26 00:59:15;;;;;;;1.17;1.10;;;;;;;7.81;92.56;99272.84;5097399;28;20101;-67
2023/12/26 01:01:44;;;;;;;0.93;0.93;;;;;;;7.76;92.63;99268.56;5096116;28;20385;-66
2023/12/26 01:04:13;;;;;;;0.57;0.57;;;;;;;7.73;93.03;99264.31;5096275;28;20085;-67
2023/12/26 01:06:42;;;;;;;1.17;1.08;;;;;;;7.74;92.86;99265.19;5097238;28;20072;-67
2023/12/26 01:09:12;;;;;;;0.60;0.53;;;;;;;7.69;92.48;99262.63;5096122;28;20493;-66
2023/12/26 01:11:42;;;;;;;0.40;0.40;;;;;;;7.66;93.21;99267.69;5096605;28;20299;-66
2023/12/26 01:14:11;;;;;;;0.70;0.70;;;;;;;7.61;93.14;99264.28;5096309;28;20048;-66
2023/12/26 01:16:43;;;;;;;0.60;0.60;;;;;;;7.62;92.84;99263.44;5095976;28;20051;-67
2023/12/26 01:19:14;;;;;;;0.60;0.60;;;;;;;7.61;92.54;99264.28;5097046;28;20044;-67
2023/12/26 01:21:43;;;;;;;0.40;0.40;;;;;;;7.60;93.42;99266.81;5095818;28;20040;-66
2023/12/26 01:24:12;;;;;;;0.70;0.70;;;;;;;7.59;93.76;99265.97;5096066;28;20472;-66
2023/12/26 01:26:43;;;;;;;0.65;0.65;;;;;;;7.60;94.00;99274.44;5096869;28;20049;-67
2023/12/26 01:29:12;;;;;;;0.68;0.68;;;;;;;7.59;94.14;99271.03;5096773;28;20052;-66
2023/12/26 01:31:42;;;;;;;0.35;0.35;;;;;;;7.61;93.31;99264.28;5096854;28;20094;-66
2023/12/26 01:34:10;;;;;;;;;;;;;;;7.60;94.32;99265.13;5096256;28;20490;-67
2023/12/26 01:36:39;;;;;;;0.35;0.35;;;;;;;7.62;94.32;99265.13;5097052;28;19920;-66
2023/12/26 01:39:10;;;;;;;0.87;0.87;;;;;;;7.61;94.05;99254.13;5097183;28;20048;-66
2023/12/26 01:41:39;;;;;;;0.32;0.32;;;;;;;7.61;94.41;99249.03;5096689;28;20279;-66
2023/12/26 01:44:10;;;;;;;0.20;0.20;;;;;;;7.65;95.01;99250.75;5095383;28;20083;-66
2023/12/26 01:46:39;;;;;;;2.58;1.52;;;;;;;7.66;94.40;99252.44;5096459;28;20040;-66
2023/12/26 01:49:09;;;;;;;1.35;0.95;;;;;;;7.67;94.33;99244.00;5094995;28;20085;-67
2023/12/26 01:51:38;;;;;;;0.75;0.75;;;;;;;7.63;94.21;99242.25;5096741;28;20127;-67
2023/12/26 01:54:09;;;;;;;0.52;0.52;;;;;;;7.62;94.81;99235.50;5096649;28;20135;-67
2023/12/26 01:56:38;;;;;;;0.63;0.63;;;;;;;7.67;94.55;99244.00;5095051;28;20140;-66
2023/12/26 01:59:08;;;;;;;0.90;0.82;;;;;;;7.61;94.66;99231.25;5095398;28;20139;-67
2023/12/26 02:01:38;;;;;;;0.40;0.40;;;;;;;7.67;95.24;99249.06;5095943;28;20147;-66
2023/12/26 02:04:08;;;;;;;0.40;0.40;;;;;;;7.66;95.63;99247.38;5095318;28;20501;-67
2023/12/26 02:06:39;;;;;;;0.77;0.77;;;;;;;7.68;94.69;99240.59;5095394;28;20047;-66
2023/12/26 02:09:10;;;;;;;0.50;0.50;;;;;;;7.77;95.29;99232.19;5094932;28;20042;-67
2023/12/26 02:11:39;;;;;;;1.13;1.02;;;;;;;7.85;95.15;99233.88;5096095;28;20072;-66
2023/12/26 02:14:09;;;;;;;0.47;0.47;;;;;;;7.92;94.57;99230.50;5096601;28;20043;-66
2023/12/26 02:16:44;;;;;;;0.38;0.38;;;;;;;7.98;94.60;99224.59;5096236;28;20079;-66
2023/12/26 02:19:13;;;;;;;0.35;0.35;;;;;;;8.04;94.86;99230.53;5078121;28;20378;-66
2023/12/26 02:21:42;;;;;;;;;;;;;;;8.08;94.84;99214.47;5095112;28;20048;-66
2023/12/26 02:24:13;;;;;;;0.80;0.80;;;;;;;8.08;94.29;99208.53;5094597;28;19927;-67
2023/12/26 02:26:43;;;;;;;0.60;0.60;;;;;;;8.09;94.28;99208.53;5094565;28;20044;-67
2023/12/26 02:29:13;;;;;;;0.20;0.20;;;;;;;8.08;93.96;99209.41;5094356;28;20032;-67
2023/12/26 02:31:44;;;;;;;0.50;0.50;;;;;;;8.04;94.38;99204.28;5095661;28;20044;-67
2023/12/26 02:34:13;;;;;;;5.15;1.58;;;;;;;8.13;94.13;99208.53;5094739;28;20044;-66
2023/12/26 02:36:43;;;;;;;0.85;0.80;;;;;;;8.17;94.10;99213.63;5094411;28;20044;-66
2023/12/26 02:39:15;;;;;;;9.70;1.05;;;;;;;8.17;93.88;99216.16;5095413;28;20123;-67
2023/12/26 02:41:45;;;;;;;0.60;0.60;;;;;;;8.17;93.63;99215.31;5095467;28;20055;-67
2023/12/26 02:44:14;;;;;;;0.75;0.75;;;;;;;8.17;93.40;99210.22;5095432;28;20490;-67
2023/12/26 02:46:43;;;;;;;0.30;0.30;;;;;;;8.13;93.77;99214.47;5094306;28;20550;-66
2023/12/26 02:49:12;;;;;;;0.30;0.30;;;;;;;8.09;92.86;99208.53;5094364;28;20043;-66
2023/12/26 02:51:40;;;;;;;0.30;0.30;;;;;;;8.04;93.03;99205.13;5095265;28;20123;-66
2023/12/26 02:54:09;;;;;;;0.20;0.20;;;;;;;7.98;93.38;99212.75;5095516;28;20036;-67
2023/12/26 02:56:40;;;;;;;1.53;1.43;;;;;;;7.92;94.05;99206.78;5095210;28;20052;-66
2023/12/26 02:59:08;;;;;;;0.50;0.50;;;;;;;7.89;93.35;99204.25;5093849;28;20406;-67
2023/12/26 03:01:37;;;;;;;0.73;0.73;;;;;;;7.86;93.03;99206.78;5094794;28;20135;-66
2023/12/26 03:04:06;;;;;;;0.40;0.40;;;;;;;7.85;93.30;99213.56;5093854;28;20501;-66
2023/12/26 03:06:35;;;;;;;0.52;0.52;;;;;;;7.83;93.60;99210.16;5093758;28;20044;-66
2023/12/26 03:09:04;;;;;;;0.70;0.70;;;;;;;7.82;93.64;99213.53;5095029;28;20071;-65
2023/12/26 03:11:33;;;;;;;0.47;0.47;;;;;;;7.81;94.11;99211.88;5094871;28;20509;-67
2023/12/26 03:14:03;;;;;;;0.60;0.60;;;;;;;7.78;93.87;99206.78;5094858;28;20093;-65
2023/12/26 03:16:32;;;;;;;1.60;1.50;;;;;;;7.75;93.91;99201.66;5093947;28;20117;-66
2023/12/26 03:19:02;;;;;;;0.40;0.40;;;;;;;7.73;93.31;99202.50;5094714;28;20131;-66
2023/12/26 03:21:32;;;;;;;0.50;0.50;;;;;;;7.71;94.23;99194.03;5094663;28;20401;-66
2023/12/26 03:24:01;;;;;;;0.33;0.33;;;;;;;7.70;93.86;99193.19;5094611;28;20055;-66
2023/12/26 03:26:30;;;;;;;0.47;0.47;;;;;;;7.68;94.10;99189.81;5093678;28;20093;-67
2023/12/26 03:28:58;;;;;;;0.33;0.33;;;;;;;7.67;94.13;99182.19;5094438;28;20036;-67
2023/12/26 03:31:29;;;;;;;0.60;0.60;;;;;;;7.67;94.70;99184.72;5095006;28;20052;-66
2023/12/26 03:33:58;;;;;;;0.45;0.45;;;;;;;7.66;95.02;99188.97;5093290;28;20052;-67
2023/12/26 03:36:27;;;;;;;0.57;0.57;;;;;;;7.65;94.37;99189.81;5094754;28;20121;-66
2023/12/26 03:38:55;;;;;;;0.47;0.47;;;;;;;7.62;94.73;99184.72;5093297;28;20549;-67
2023/12/26 03:41:25;;;;;;;0.45;0.45;;;;;;;7.60;94.98;99183.88;5094247;28;20040;-68
2023/12/26 03:43:53;;;;;;;0.77;0.77;;;;;;;7.60;94.59;99180.47;5093092;28;20562;-66
2023/12/26 03:46:21;;;;;;;0.60;0.60;;;;;;;7.58;95.16;99179.63;5094166;28;20046;-66
2023/12/26 03:48:52;;;;;;;2.65;1.15;;;;;;;7.58;94.49;99185.56;5093898;28;20044;-66
2023/12/26 03:51:21;;;;;;;0.60;0.60;;;;;;;7.55;95.13;99188.09;5093104;28;20109;-66
2023/12/26 03:53:49;;;;;;;1.67;0.70;;;;;;;7.53;95.49;99179.63;5092754;28;20044;-67
2023/12/26 03:56:18;;;;;;;0.73;0.60;;;;;;;7.53;95.73;99174.53;5093019;28;20816;-67
2023/12/26 03:58:47;;;;;;;0.77;0.77;;;;;;;7.55;94.87;99172.84;5093906;28;20048;-66
2023/12/26 04:01:16;;;;;;;0.50;0.50;;;;;;;7.53;94.81;99174.53;5092372;28;20291;-67
2023/12/26 04:03:46;;;;;;;1.60;0.60;;;;;;;7.53;95.45;99177.09;5092885;28;20444;-66
2023/12/26 04:06:16;;;;;;;2.05;1.02;;;;;;;7.54;95.03;99176.22;5092552;28;20067;-67
2023/12/26 04:08:46;;;;;;;0.57;0.57;;;;;;;7.54;95.13;99170.28;5092535;28;20114;-67
2023/12/26 04:11:15;;;;;;;4.88;0.80;;;;;;;7.51;95.25;99166.03;5091764;28;20043;-67
2023/12/26 04:13:44;;;;;;;1.00;0.65;;;;;;;7.52;95.71;99175.38;5093580;28;20036;-66
2023/12/26 04:16:14;;;;;;;0.60;0.60;;;;;;;7.51;96.02;99173.66;5093596;28;20068;-65
2023/12/26 04:18:44;;;;;;;0.88;0.82;;;;;;;7.51;95.45;99176.19;5093638;28;20048;-66
2023/12/26 04:21:13;;;;;;;0.75;0.75;;;;;;;7.53;96.09;99171.16;5092430;28;20490;-66
2023/12/26 04:23:45;;;;;;;1.17;0.77;;;;;;;7.52;95.85;99172.84;5093865;28;20517;-66
2023/12/26 04:26:15;;;;;;;0.70;0.70;;;;;;;7.50;95.76;99174.53;5093547;28;20072;-66
2023/12/26 04:28:44;;;;;;;0.40;0.40;;;;;;;7.51;95.37;99180.47;5092502;28;20078;-66
2023/12/26 04:31:13;;;;;;;0.45;0.45;;;;;;;7.53;96.34;99173.69;5092296;28;20778;-67
2023/12/26 04:33:44;;;;;;;0.95;0.95;;;;;;;7.54;96.52;99168.59;5093475;28;20039;-66
2023/12/26 04:36:14;;;;;;;1.27;0.68;;;;;;;7.55;96.41;99162.69;5094034;28;20439;-65
2023/12/26 04:38:43;;;;;;;0.38;0.38;;;;;;;7.54;96.02;99161.00;5093433;28;20036;-66
2023/12/26 04:41:13;;;;;;;0.50;0.50;;;;;;;7.56;96.11;99164.38;5093414;28;20086;-66
2023/12/26 04:43:42;;;;;;;6.45;1.10;;;;;;;7.56;95.82;99158.47;5093892;28;20448;-67
2023/12/26 04:46:19;;;;;;;0.40;0.40;;;;;;;7.56;96.38;99164.38;5092477;28;20040;-66
2023/12/26 04:48:50;;;;;;;0.38;0.38;;;;;;;7.56;96.07;99161.84;5093622;28;20047;-66
2023/12/26 04:51:19;;;;;;;0.50;0.50;;;;;;;7.56;97.07;99154.22;5092426;28;20036;-66
2023/12/26 04:53:49;;;;;;;5.57;0.82;;;;;;;7.55;95.99;99155.06;5092344;28;20089;-66
2023/12/26 04:56:20;;;;;;;0.40;0.40;;;;;;;7.56;96.21;99150.84;5093591;28;20044;-66
2023/12/26 04:58:50;;;;;;;1.30;1.00;;;;;;;7.57;96.07;99153.38;5093322;28;20097;-66
2023/12/26 05:01:21;;;;;;;0.77;0.77;;;;;;;7.56;96.72;99159.28;5091872;28;20052;-66
2023/12/26 05:03:49;;;;;;;0.68;0.65;;;;;;;7.54;96.51;99155.91;5092316;28;20106;-66
2023/12/26 05:06:20;;;;;;;0.83;0.83;;;;;;;7.55;96.32;99146.59;5093277;28;20036;-66
2023/12/26 05:08:49;;;;;;;1.00;0.85;;;;;;;7.51;96.18;99145.75;5091966;28;20279;-67
2023/12/26 05:11:23;;;;;;;0.68;0.68;;;;;;;7.54;96.86;99145.75;5092240;28;20032;-67
2023/12/26 05:13:53;;;;;;;1.42;1.33;;;;;;;7.54;96.42;99150.81;5093432;28;20380;-66
2023/12/26 05:16:22;;;;;;;0.50;0.50;;;;;;;7.48;96.59;99140.69;5092461;28;20036;-66
2023/12/26 05:18:51;;;;;;;0.82;0.82;;;;;;;7.54;96.86;99155.91;5091928;28;20277;-66
2023/12/26 05:21:22;;;;;;;0.68;0.68;;;;;;;7.54;96.83;99155.06;5091779;28;20047;-67
2023/12/26 05:23:51;;;;;;;0.73;0.73;;;;;;;7.55;96.24;99155.06;5096008;28;20039;-66
2023/12/26 05:26:20;;;;;;;0.50;0.50;;;;;;;7.57;95.78;99152.53;5095562;28;20058;-66
2023/12/26 05:28:51;;;;;;;1.45;1.20;;;;;;;7.62;96.59;99156.78;5096716;28;20494;-66
2023/12/26 05:31:21;;;;;;;0.68;0.68;;;;;;;7.66;96.25;99153.41;5097179;28;20462;-67
2023/12/26 05:33:50;;;;;;;0.40;0.40;;;;;;;7.65;96.95;99154.25;5095511;28;20048;-66
2023/12/26 05:36:20;;;;;;;0.98;0.88;;;;;;;7.66;95.93;99153.41;5096828;28;20452;-66
2023/12/26 05:38:50;;;;;;;0.43;0.43;;;;;;;7.65;96.28;99154.25;5095416;28;20052;-66
2023/12/26 05:41:18;;;;;;;0.40;0.40;;;;;;;7.65;95.98;99163.56;5095286;28;20044;-66
2023/12/26 05:43:48;;;;;;;1.42;1.35;;;;;;;7.63;95.70;99161.00;5095266;28;20087;-67
2023/12/26 05:46:20;;;;;;;0.57;0.57;;;;;;;7.61;95.98;99152.53;5095097;28;20071;-66
2023/12/26 05:48:49;;;;;;;0.75;0.75;;;;;;;7.60;96.21;99155.94;5095233;28;20036;-66
2023/12/26 05:51:18;;;;;;;1.15;1.05;;;;;;;7.58;96.05;99154.25;5095393;28;20036;-66
2023/12/26 05:53:47;;;;;;;0.70;0.70;;;;;;;7.57;95.38;99150.84;5095371;28;20040;-67
2023/12/26 05:56:17;;;;;;;0.82;0.82;;;;;;;7.54;96.07;99150.81;5095263;28;20547;-66
2023/12/26 05:58:46;;;;;;;0.32;0.32;;;;;;;7.52;96.19;99142.38;5095106;28;20540;-66
2023/12/26 06:01:15;;;;;;;0.30;0.30;;;;;;;7.43;95.91;99137.28;5095385;28;20513;-65
2023/12/26 06:03:46;;;;;;;0.60;0.60;;;;;;;7.44;96.12;99155.03;5094882;28;20048;-67
2023/12/26 06:06:17;;;;;;;0.70;0.63;;;;;;;7.41;95.74;99159.28;5096250;28;20080;-66
2023/12/26 06:08:46;;;;;;;1.02;0.98;;;;;;;7.40;95.92;99147.41;5094736;28;20105;-67
2023/12/26 06:11:15;;;;;;;0.85;0.77;;;;;;;7.38;95.83;99154.19;5095878;28;20040;-66
2023/12/26 06:13:43;;;;;;;0.70;0.70;;;;;;;7.32;96.54;99134.69;5095840;28;20036;-67
2023/12/26 06:16:12;;;;;;;1.85;1.45;;;;;;;7.29;95.49;99149.06;5094555;28;20036;-67
2023/12/26 06:18:41;;;;;;;1.17;1.10;;;;;;;7.23;96.32;99154.09;5094758;28;20043;-65
2023/12/26 06:21:11;;;;;;;2.00;1.80;;;;;;;7.21;96.01;99160.88;5094511;28;20043;-65
2023/12/26 06:23:41;;;;;;;1.20;1.10;;;;;;;7.27;95.55;99163.44;5094423;28;20047;-67
2023/12/26 06:26:12;;;;;;;1.05;1.05;;;;;;;7.32;96.54;99167.69;5094496;28;20054;-67
2023/12/26 06:28:41;;;;;;;1.85;1.60;;;;;;;7.37;95.87;99162.63;5094298;28;20040;-67
2023/12/26 06:31:14;;;;;;;1.73;1.60;;;;;;;7.44;95.88;99170.25;5094257;28;20413;-66
2023/12/26 06:33:43;;;;;;;1.40;1.30;;;;;;;7.48;95.30;99171.13;5094163;28;20040;-67
2023/12/26 06:36:15;;;;;;;1.88;1.58;;;;;;;7.53;96.14;99178.78;5095058;28;20060;-66
2023/12/26 06:38:44;;;;;;;1.00;0.93;;;;;;;7.54;95.89;99176.22;5094491;28;20052;-67
2023/12/26 06:41:14;;;;;;;1.13;1.02;;;;;;;7.53;94.91;99173.69;5094416;28;20136;-66
2023/12/26 06:43:43;;;;;;;0.77;0.77;;;;;;;7.53;94.80;99176.22;5095253;28;20047;-66
2023/12/26 06:46:12;;;;;;;1.38;1.15;;;;;;;7.51;94.70;99186.34;5093139;28;20040;-66
2023/12/26 06:48:42;;;;;;;1.73;0.90;;;;;;;7.48;94.63;99183.84;5094084;28;20076;-65
2023/12/26 06:51:11;;;;;;;1.00;0.98;;;;;;;7.44;95.55;99184.63;5094035;28;20036;-65
2023/12/26 06:53:42;;;;;;;1.90;1.65;;;;;;;7.34;94.88;99181.22;5094914;28;20044;-65
2023/12/26 06:56:10;;;;;;;1.27;0.85;;;;;;;7.33;94.33;99191.38;5094075;28;20401;-65
2023/12/26 06:58:40;;;;;;;0.73;0.73;;;;;;;7.29;94.48;99189.69;5093379;28;20135;-65
2023/12/26 07:01:10;;;;;;;1.50;1.35;;;;;;;7.19;94.74;99183.72;5093376;28;20043;-65
2023/12/26 07:03:38;;;;;;;0.82;0.82;;;;;;;7.22;94.27;99193.84;5094009;28;20123;-66
2023/12/26 07:06:08;;;;;;;1.52;1.15;;;;;;;7.28;94.11;99193.03;5095177;28;20036;-65
2023/12/26 07:08:36;;;;;;;0.80;0.80;;;;;;;7.41;94.39;99198.16;5093808;28;20515;-65
2023/12/26 07:11:07;;;;;;;0.77;0.77;;;;;;;7.59;94.51;99194.00;5094845;28;20040;-66
2023/12/26 07:13:35;;;;;;;1.33;1.23;;;;;;;7.77;94.80;99205.09;5094869;28;20055;-66
2023/12/26 07:16:05;;;;;;;1.67;1.57;;;;;;;7.96;95.02;99211.06;5094377;28;20528;-66
2023/12/26 07:18:34;;;;;;;0.60;0.60;;;;;;;8.26;94.47;99215.31;5094542;28;20284;-65
2023/12/26 07:21:03;;;;;;;1.98;1.80;;;;;;;8.68;94.28;99211.13;5093841;28;20043;-65
2023/12/26 07:23:32;;;;;;;0.75;0.75;;;;;;;9.01;94.10;99220.41;5094338;28;20054;-66
2023/12/26 07:26:00;;;;;;;1.13;1.07;;;;;;;9.31;94.02;99219.47;5091907;28;20043;-66
2023/12/26 07:28:31;;;;;;;2.03;1.83;;;;;;;9.58;93.15;99219.38;5093966;28;20047;-66
2023/12/26 07:30:59;;;;;;;1.27;1.17;;;;;;;9.69;92.42;99227.84;5093946;28;20043;-65
2023/12/26 07:33:28;;;;;;;7.68;2.95;;;;;;;9.83;91.55;99220.13;5094746;28;20498;-66
2023/12/26 07:36:00;;;;;;;1.40;1.30;;;;;;;9.78;90.58;99221.84;5094692;28;20132;-66
2023/12/26 07:38:29;;;;;;;1.90;1.75;;;;;;;9.76;89.11;99233.75;5094445;28;20044;-65
2023/12/26 07:40:57;;;;;;;30.70;1.55;;;;;;;9.51;88.08;99229.59;5094639;28;20464;-65
2023/12/26 07:43:26;;;;;;;1.52;1.42;;;;;;;9.36;87.61;99238.13;5094622;28;20062;-65
2023/12/26 07:45:56;;;;;;;1.20;1.10;;;;;;;9.27;87.07;99233.91;5092942;28;20065;-66
2023/12/26 07:48:25;;;;;;;1.40;1.27;;;;;;;9.22;87.01;99230.53;5094553;28;20047;-65
2023/12/26 07:50:54;;;;;;;1.60;1.50;;;;;;;9.27;86.76;99233.91;5094337;28;20168;-66
2023/12/26 07:53:23;;;;;;;0.93;0.93;;;;;;;9.13;86.89;99222.94;5093536;28;20093;-65
2023/12/26 07:55:52;;;;;;;4.63;1.87;;;;;;;9.29;86.95;99239.00;5092719;28;20052;-66
2023/12/26 07:58:21;;;;;;;7.93;2.00;;;;;;;9.32;87.10;99244.94;5094299;28;20050;-66
2023/12/26 08:00:50;;;;;;;5.18;1.42;;;;;;;9.34;86.19;99250.88;5094183;28;20387;-66
2023/12/26 08:03:21;;;;;;;0.73;0.73;;;;;;;9.34;85.82;99244.94;5094270;28;20079;-65
2023/12/26 08:05:50;;;;;;;7.28;3.92;;;;;;;9.39;85.81;99254.25;5093965;28;20044;-66
2023/12/26 08:08:18;;;;;;;0.73;0.60;;;;;;;9.58;85.87;99249.94;5094177;28;20036;-65
2023/12/26 08:10:47;;;;;;;1.23;1.13;;;;;;;9.75;86.00;99252.41;5094055;28;20105;-65
2023/12/26 08:13:15;;;;;;;0.82;0.82;;;;;;;9.87;85.18;99260.00;5092941;28;20486;-66
2023/12/26 08:15:44;;;;;;;0.37;0.37;;;;;;;10.03;84.95;99264.16;5092556;28;20036;-65
2023/12/26 08:18:13;;;;;;;1.63;1.53;;;;;;;10.10;84.47;99255.66;5093750;28;20044;-65
2023/12/26 08:20:43;;;;;;;1.38;1.33;;;;;;;10.23;83.46;99262.41;5093640;28;20513;-65
2023/12/26 08:23:13;;;;;;;0.60;0.60;;;;;;;10.37;83.10;99260.59;5092601;28;20056;-65
2023/12/26 08:25:42;;;;;;;0.35;0.35;;;;;;;10.42;82.49;99278.41;5093972;28;20066;-65
2023/12/26 08:28:11;;;;;;;;;;;;;;;10.52;82.28;99273.25;5094030;28;20138;-65
2023/12/26 08:30:40;;;;;;;2.28;1.67;;;;;;;10.62;81.66;99277.44;5093619;28;19927;-66
2023/12/26 08:33:09;;;;;;;1.92;1.35;;;;;;;10.61;80.61;99278.28;5093566;28;20119;-65
2023/12/26 08:35:38;;;;;;;1.58;1.35;;;;;;;10.63;80.18;99279.13;5093638;28;20044;-65
2023/12/26 08:38:08;;;;;;;0.60;0.60;;;;;;;10.64;79.42;99285.06;5092724;28;20130;-65
2023/12/26 08:40:37;;;;;;;2.20;1.70;;;;;;;10.55;78.86;99290.25;5094242;28;20455;-65
2023/12/26 08:43:06;;;;;;;1.67;1.30;;;;;;;10.47;78.63;99297.94;5093451;28;20048;-65
2023/12/26 08:45:34;;;;;;;1.70;1.37;;;;;;;10.44;78.84;99295.41;5093492;28;20569;-66
2023/12/26 08:48:03;;;;;;;1.25;1.15;;;;;;;10.38;78.95;99285.25;5093749;28;20048;-65
2023/12/26 08:50:32;;;;;;;2.20;1.60;;;;;;;10.39;79.24;99288.66;5093375;28;20048;-65
2023/12/26 08:53:00;;;;;;;1.03;0.93;;;;;;;10.39;79.00;99289.50;5093775;28;20119;-65
2023/12/26 08:55:31;;;;;;;1.67;1.55;;;;;;;10.42;79.11;99294.59;5093594;28;20058;-65
2023/12/26 08:57:59;;;;;;;3.40;2.80;;;;;;;10.47;78.97;99287.75;5093898;28;20047;-65
2023/12/26 09:00:28;;;;;;;1.10;1.00;;;;;;;10.46;78.71;99283.50;5097391;28;20068;-65
2023/12/26 09:02:57;;;;;;;8.35;2.50;;;;;;;10.51;78.49;99284.31;5097095;28;20071;-65
2023/12/26 09:05:35;;;;;;;1.77;1.50;;;;;;;10.55;78.20;99273.25;5096420;28;20555;-65
2023/12/26 09:08:04;;;;;;;1.63;1.52;;;;;;;10.54;77.58;99279.19;5096383;28;20063;-65
2023/12/26 09:10:34;;;;;;;0.68;0.68;;;;;;;10.64;77.23;99280.81;5097571;28;20057;-65
2023/12/26 09:13:03;;;;;;;4.07;1.55;;;;;;;10.75;77.00;99281.56;5097372;28;20398;-65
2023/12/26 09:15:32;;;;;;;0.70;0.70;;;;;;;10.78;76.71;99278.16;5097186;28;20123;-65
2023/12/26 09:18:00;;;;;;;0.55;0.55;;;;;;;10.80;76.14;99280.72;5097121;28;20288;-65
2023/12/26 09:20:29;;;;;;;1.65;0.93;;;;;;;10.78;75.52;99286.66;5097331;28;20165;-65
2023/12/26 09:22:58;;;;;;;1.23;1.00;;;;;;;10.77;74.82;99287.50;5097291;28;20044;-64
2023/12/26 09:25:27;;;;;;;2.80;1.23;;;;;;;10.83;74.49;99288.31;5096968;28;20561;-65
2023/12/26 09:27:57;;;;;;;0.40;0.40;;;;;;;10.92;73.87;99285.72;5096866;28;20047;-65
2023/12/26 09:30:27;;;;;;;0.95;0.90;;;;;;;11.03;73.60;99276.25;5097195;28;20630;-64
2023/12/26 09:32:55;;;;;;;0.60;0.60;;;;;;;11.16;73.49;99280.38;5096853;28;20040;-65
2023/12/26 09:35:26;;;;;;;0.75;0.75;;;;;;;11.32;73.15;99276.81;5096701;28;20755;-65
2023/12/26 09:37:54;;;;;;;0.50;0.50;;;;;;;11.55;72.48;99284.22;5096979;28;20067;-66
2023/12/26 09:40:23;;;;;;;1.30;1.03;;;;;;;11.73;71.43;99274.69;5097054;28;20058;-67
2023/12/26 09:42:54;;;;;;;2.03;1.03;;;;;;;11.85;70.51;99269.41;5096624;28;20054;-66
2023/12/26 09:45:27;;;;;;;1.15;1.05;;;;;;;12.05;70.57;99271.72;5096501;28;20043;-67
2023/12/26 09:47:56;;;;;;;3.50;1.23;;;;;;;12.12;70.15;99272.50;5095653;28;20151;-66
2023/12/26 09:50:25;;;;;;;0.55;0.55;;;;;;;12.15;68.98;99273.28;5096387;28;20044;-66
2023/12/26 09:52:59;;;;;;;1.65;0.82;;;;;;;12.25;69.39;99279.13;5096441;28;20477;-66
2023/12/26 09:55:28;;;;;;;1.00;0.77;;;;;;;12.25;68.13;99274.00;5096363;28;20055;-65
2023/12/26 09:57:58;;;;;;;0.60;0.60;;;;;;;12.24;67.84;99280.00;5096608;28;20078;-65
2023/12/26 10:00:30;;;;;;;0.38;0.38;;;;;;;12.30;68.31;99283.31;5095528;28;20044;-65
2023/12/26 10:03:01;;;;;;;0.80;0.80;;;;;;;12.41;68.18;99285.69;5095357;28;20044;-66
2023/12/26 10:05:30;;;;;;;2.38;1.23;;;;;;;12.42;68.13;99289.97;5095324;28;20048;-65
2023/12/26 10:07:59;;;;;;;0.93;0.93;;;;;;;12.47;67.67;99285.63;5096436;28;20048;-65
2023/12/26 10:10:29;;;;;;;2.93;2.20;;;;;;;12.52;68.54;99271.91;5095199;28;20281;-65
2023/12/26 10:12:57;;;;;;;;;;;;;;;12.53;68.39;99276.13;5096501;28;20057;-65
2023/12/26 10:15:28;;;;;;;0.50;0.50;;;;;;;12.46;68.07;99278.81;5096240;28;19943;-65
2023/12/26 10:17:57;;;;;;;0.40;0.40;;;;;;;12.34;68.12;99278.97;5096399;28;20056;-65
2023/12/26 10:20:26;;;;;;;0.45;0.45;;;;;;;12.22;67.66;99279.16;5096164;28;20105;-65
2023/12/26 10:22:55;;;;;;;1.17;1.02;;;;;;;12.17;68.26;99276.66;5096424;28;20040;-64
2023/12/26 10:25:25;;;;;;;1.60;1.50;;;;;;;12.13;68.28;99269.03;5096070;28;20052;-64
2023/12/26 10:27:58;;;;;;;0.83;0.83;;;;;;;12.11;68.31;99261.41;5095814;28;20050;-64
2023/12/26 10:30:29;;;;;;;0.63;0.63;;;;;;;12.09;68.54;99258.84;5095749;28;20082;-65
2023/12/26 10:33:01;;;;;;;0.63;0.63;;;;;;;12.20;68.72;99268.09;5095876;28;20371;-64
2023/12/26 10:35:33;;;;;;;2.92;1.10;;;;;;;12.17;68.59;99261.31;5096528;28;20051;-64
2023/12/26 10:38:02;;;;;;;2.42;1.10;;;;;;;12.15;68.66;99265.59;5095669;28;20040;-64
2023/12/26 10:40:31;;;;;;;0.60;0.60;;;;;;;12.13;68.92;99264.78;5095811;28;20081;-65
2023/12/26 10:43:02;;;;;;;1.88;1.70;;;;;;;12.20;69.29;99260.41;5094229;28;20043;-65
2023/12/26 10:45:33;;;;;;;1.15;1.05;;;;;;;12.14;68.84;99268.19;5095679;28;20052;-64
2023/12/26 10:48:05;;;;;;;1.30;1.20;;;;;;;12.08;69.95;99261.44;5095468;28;20048;-64
2023/12/26 10:50:36;;;;;;;0.50;0.50;;;;;;;12.07;70.35;99260.59;5095285;28;20078;-65
2023/12/26 10:53:04;;;;;;;0.70;0.70;;;;;;;12.12;70.45;99272.50;5095378;28;20051;-65
2023/12/26 10:55:36;;;;;;;1.15;0.52;;;;;;;12.14;70.43;99275.88;5093800;28;20048;-65
2023/12/26 10:58:05;;;;;;;0.88;0.88;;;;;;;12.20;68.86;99275.78;5094915;28;20414;-64
2023/12/26 11:00:34;;;;;;;1.33;0.93;;;;;;;12.23;68.44;99275.75;5095236;28;20047;-65
2023/12/26 11:03:02;;;;;;;0.40;0.40;;;;;;;12.25;67.44;99268.88;5094826;28;20059;-65
2023/12/26 11:05:31;;;;;;;0.52;0.52;;;;;;;12.21;65.66;99282.59;5095135;28;20117;-65
2023/12/26 11:07:59;;;;;;;0.75;0.75;;;;;;;12.24;63.23;99290.22;5094861;28;20498;-65
2023/12/26 11:10:27;;;;;;;0.38;0.38;;;;;;;12.29;61.78;99280.75;5094941;28;20036;-66
2023/12/26 11:12:55;;;;;;;0.40;0.40;;;;;;;12.33;60.92;99277.31;5095116;28;20139;-65
2023/12/26 11:15:23;;;;;;;0.30;0.30;;;;;;;12.48;59.61;99287.28;5095240;28;20040;-65
2023/12/26 11:17:53;;;;;;;0.47;0.47;;;;;;;12.66;59.52;99281.91;5094697;28;20509;-65
2023/12/26 11:20:22;;;;;;;0.30;0.30;;;;;;;12.76;58.22;99278.34;5094727;28;20044;-65
2023/12/26 11:22:50;;;;;;;0.70;0.68;;;;;;;12.83;57.85;99277.38;5095495;28;20447;-65
2023/12/26 11:25:18;;;;;;;0.40;0.38;;;;;;;12.87;57.75;99271.31;5095106;28;20036;-65
2023/12/26 11:27:47;;;;;;;0.40;0.40;;;;;;;12.96;57.25;99281.41;5093472;28;20036;-65
2023/12/26 11:30:15;;;;;;;0.40;0.40;;;;;;;13.03;57.51;99290.69;5094815;28;20130;-65
2023/12/26 11:32:44;;;;;;;0.43;0.43;;;;;;;13.05;57.67;99281.25;5093514;28;20033;-66
2023/12/26 11:35:14;;;;;;;0.32;0.32;;;;;;;13.12;57.69;99277.78;5094655;28;20036;-66
2023/12/26 11:37:42;;;;;;;1.45;1.15;;;;;;;13.11;58.13;99281.19;5094458;28;20494;-65
2023/12/26 11:40:10;;;;;;;0.30;0.30;;;;;;;13.12;57.97;99285.47;5094679;28;20036;-66
2023/12/26 11:42:39;;;;;;;0.50;0.50;;;;;;;13.08;57.85;99288.91;5093309;28;20506;-65
2023/12/26 11:45:11;;;;;;;0.30;0.30;;;;;;;13.12;58.27;99282.03;5094595;28;20047;-65
2023/12/26 11:47:40;;;;;;;0.40;0.40;;;;;;;13.05;57.36;99276.13;5094473;28;20126;-65
2023/12/26 11:50:08;;;;;;;;;;;;;;;12.89;58.00;99307.16;5094869;28;20126;-65
2023/12/26 11:52:38;;;;;;;0.50;0.50;;;;;;;12.83;58.20;99300.44;5094296;28;20010;-65